Austin, MN

8:44 AM CDT on July 20, 2017 (GMT -0500)
Austin Municipal

Weather History for KAUM - January, 2014

Change the Weather History Date:

Wednesday, January 29, 2014

  Actual Average Record
Temperature  
Mean Temperature 8 °F -  
Max Temperature 26 °F 23 °F 39 °F (2008)
Min Temperature -11 °F 10 °F -13 °F (2004)
Degree Days  
Heating Degree Days 58    
Moisture  
Dew Point 0 °F    
Average Humidity 69    
Maximum Humidity 84    
Minimum Humidity 59    
Precipitation  
Precipitation 0.00 in - - ()
Sea Level Pressure  
Sea Level Pressure 29.87 in    
Wind  
Wind Speed 9 mph (SSW)    
Max Wind Speed 18 mph    
Max Gust Speed 25 mph    
Visibility 10 miles    
Events      
Averages and records for this station are not official NWS values.
T = Trace of Precipitation, MM = Missing Value Source: NWS Daily Summary

Daily Weather History Graph

Daily Weather History Graph

Search for Another Location

Airport or City:

Trip Planner

Search our weather history database for the weather conditions in past years. The results will help you decide how hot, cold, wet, or windy it might be!

Date:

Astronomy

Jan. 29, 2014 Rise Set
Actual Time 7:31 AM CST 5:18 PM CST
Civil Twilight 7:00 AM CST 5:49 PM CST
Nautical Twilight 6:26 AM CST 6:24 PM CST
Astronomical Twilight 5:52 AM CST 6:57 PM CST
Moon 6:08 AM CST (1/29) 4:19 PM CST (1/29)
Length of Visible Light 10h 48m
Length of Day
9h 47m
Waning Crescent, 2% of the Moon is Illuminated
Jan 29
Waning Crescent
Jan 30
New
Feb 6
First Quarter
Feb 14
Full
Feb 22
Last Quarter

Hourly Weather History & Observations

Time (CST) Temp. Windchill Dew Point Humidity Pressure Visibility Wind Dir Wind Speed Gust Speed Precip Events Conditions
12:14 AM -7.6 °F -20.6 °F -11.2 °F 84% 30.11 in 10.0 mi WSW 5.8 mph - N/A   Clear
12:35 AM -7.6 °F -20.6 °F -11.2 °F 84% 30.10 in 10.0 mi WSW 5.8 mph - N/A   Clear
12:55 AM -7.6 °F -20.6 °F -13.0 °F 77% 30.10 in 10.0 mi WSW 5.8 mph - N/A   Clear
1:14 AM -9.4 °F -22.7 °F -14.8 °F 77% 30.09 in 10.0 mi SW 5.8 mph - N/A   Clear
1:35 AM -7.6 °F -20.6 °F -13.0 °F 77% 30.09 in 10.0 mi SW 5.8 mph - N/A   Clear
1:55 AM -9.4 °F -24.3 °F -14.8 °F 77% 30.09 in 10.0 mi SW 6.9 mph - N/A   Clear
2:14 AM -9.4 °F -24.3 °F -13.0 °F 84% 30.09 in 10.0 mi SW 6.9 mph - N/A   Clear
2:35 AM -9.4 °F -22.7 °F -14.8 °F 77% 30.09 in 10.0 mi SW 5.8 mph - N/A   Clear
2:55 AM -9.4 °F -20.9 °F -14.8 °F 77% 30.08 in 10.0 mi SW 4.6 mph - N/A   Clear
3:14 AM -9.4 °F -22.7 °F -14.8 °F 77% 30.08 in 10.0 mi SW 5.8 mph - N/A   Clear
3:35 AM -9.4 °F -22.7 °F -14.8 °F 77% 30.07 in 10.0 mi SW 5.8 mph - N/A   Clear
3:55 AM -7.6 °F -20.6 °F -13.0 °F 77% 30.06 in 10.0 mi SW 5.8 mph - N/A   Clear
4:15 AM -7.6 °F -18.8 °F -13.0 °F 77% 30.06 in 10.0 mi SW 4.6 mph - N/A   Clear
4:35 AM -9.4 °F -20.9 °F -14.8 °F 77% 30.05 in 10.0 mi SSW 4.6 mph - N/A   Clear
4:55 AM -9.4 °F -18.6 °F -14.8 °F 77% 30.05 in 10.0 mi SSW 3.5 mph - N/A   Clear
5:15 AM -11.2 °F -23.0 °F -16.6 °F 77% 30.05 in 10.0 mi SW 4.6 mph - N/A   Clear
5:35 AM -9.4 °F -22.7 °F -14.8 °F 77% 30.04 in 10.0 mi SW 5.8 mph - N/A   Clear
5:55 AM -9.4 °F -22.7 °F -14.8 °F 77% 30.03 in 10.0 mi SSW 5.8 mph - N/A   Clear
6:15 AM -11.2 °F -24.8 °F -16.6 °F 77% 30.02 in 10.0 mi SSW 5.8 mph - N/A   Clear
6:35 AM -9.4 °F -22.7 °F -14.8 °F 77% 30.01 in 10.0 mi South 5.8 mph - N/A   Clear
6:55 AM -7.6 °F -24.6 °F -14.8 °F 71% 30.00 in 10.0 mi South 9.2 mph - N/A   Clear
7:15 AM -9.4 °F -25.6 °F -14.8 °F 77% 30.00 in 10.0 mi South 8.1 mph - N/A   Clear
7:35 AM -9.4 °F -24.3 °F -14.8 °F 77% 30.01 in 10.0 mi SSW 6.9 mph - N/A   Clear
7:55 AM -7.6 °F -23.4 °F -13.0 °F 77% 30.00 in 10.0 mi South 8.1 mph - N/A   Clear
8:15 AM -7.6 °F -22.1 °F -14.8 °F 71% 30.01 in 10.0 mi SSW 6.9 mph - N/A   Clear
8:35 AM -5.8 °F -19.9 °F -13.0 °F 71% 30.00 in 10.0 mi SSW 6.9 mph - N/A   Clear
8:55 AM -5.8 °F -19.9 °F -11.2 °F 77% 29.99 in 10.0 mi South 6.9 mph - N/A   Clear
9:15 AM -2.2 °F -14.2 °F -9.4 °F 71% 29.99 in 10.0 mi SSW 5.8 mph - N/A   Clear
9:35 AM -0.4 °F -14.7 °F -9.4 °F 66% 29.98 in 10.0 mi South 8.1 mph - N/A   Clear
9:55 AM 1.4 °F -12.5 °F -7.6 °F 66% 29.98 in 10.0 mi SSW 8.1 mph - N/A   Clear
10:15 AM 3.2 °F -11.3 °F -5.8 °F 66% 29.98 in 10.0 mi South 9.2 mph - N/A   Clear
10:35 AM 6.8 °F -7.8 °F -4.0 °F 61% 29.97 in 10.0 mi South 10.4 mph - N/A   Clear
10:54 AM 8.6 °F -4.7 °F -2.2 °F 62% 29.97 in 10.0 mi South 9.2 mph - N/A   Clear
11:15 AM 10.4 °F -2.4 °F -0.4 °F 62% 29.96 in 10.0 mi South 9.2 mph - N/A   Clear
11:35 AM 10.4 °F -2.4 °F 1.4 °F 67% 29.95 in 10.0 mi South 9.2 mph - N/A   Clear
11:55 AM 12.2 °F -1.0 °F 1.4 °F 62% 29.93 in 10.0 mi South 10.4 mph - N/A   Clear
12:15 PM 14.0 °F 0.5 °F 3.2 °F 62% 29.91 in 10.0 mi South 11.5 mph - N/A   Clear
12:35 PM 15.8 °F 3.4 °F 6.8 °F 68% 29.90 in 10.0 mi South 10.4 mph - N/A   Clear
12:55 PM 17.6 °F 5.0 °F 6.8 °F 63% 29.88 in 10.0 mi South 11.5 mph - N/A   Clear
1:15 PM 19.4 °F 5.0 °F 8.6 °F 63% 29.86 in 10.0 mi South 16.1 mph - N/A   Clear
1:35 PM 19.4 °F 6.0 °F 10.4 °F 68% 29.84 in 10.0 mi South 13.8 mph - N/A   Clear
1:55 PM 21.2 °F 6.4 °F 10.4 °F 63% 29.83 in 10.0 mi South 18.4 mph 25.3 mph N/A   Clear
2:15 PM 23.0 °F 8.7 °F 12.2 °F 63% 29.81 in 10.0 mi South 18.4 mph 24.2 mph N/A   Clear
2:35 PM 24.8 °F 11.5 °F 12.2 °F 59% 29.80 in 10.0 mi South 17.3 mph - N/A   Clear
2:55 PM 24.8 °F 11.5 °F 12.2 °F 59% 29.78 in 10.0 mi South 17.3 mph 23.0 mph N/A   Clear
3:15 PM 24.8 °F 11.1 °F 14.0 °F 64% 29.76 in 10.0 mi South 18.4 mph 23.0 mph N/A   Clear
3:35 PM 24.8 °F 11.9 °F 12.2 °F 59% 29.75 in 10.0 mi South 16.1 mph 23.0 mph N/A   Clear
3:55 PM 24.8 °F 12.4 °F 12.2 °F 59% 29.74 in 10.0 mi South 15.0 mph - N/A   Clear
4:15 PM 26.6 °F 14.7 °F 14.0 °F 59% 29.73 in 10.0 mi South 15.0 mph 21.9 mph N/A   Clear
4:35 PM 24.8 °F 11.5 °F 12.2 °F 59% 29.72 in 10.0 mi South 17.3 mph 23.0 mph N/A   Clear
4:54 PM 24.8 °F 11.9 °F 14.0 °F 64% 29.71 in 10.0 mi South 16.1 mph 21.9 mph N/A   Clear
5:15 PM 24.8 °F 11.9 °F 14.0 °F 64% 29.71 in 10.0 mi South 16.1 mph - N/A   Clear
5:35 PM 24.8 °F 14.0 °F 12.2 °F 59% 29.71 in 10.0 mi South 11.5 mph 16.1 mph N/A   Clear
5:54 PM 24.8 °F 13.4 °F 12.2 °F 59% 29.70 in 10.0 mi South 12.7 mph 17.3 mph N/A   Clear
6:15 PM 24.8 °F 14.0 °F 12.2 °F 59% 29.70 in 10.0 mi South 11.5 mph - N/A   Clear
6:35 PM 24.8 °F 14.0 °F 12.2 °F 59% 29.70 in 10.0 mi South 11.5 mph - N/A   Clear
6:54 PM 21.2 °F 8.3 °F 12.2 °F 68% 29.69 in 10.0 mi South 13.8 mph - N/A   Clear
7:15 PM 24.8 °F 11.1 °F 12.2 °F 59% 29.67 in 10.0 mi South 18.4 mph - N/A   Clear
7:35 PM 24.8 °F 11.5 °F 14.0 °F 64% 29.67 in 10.0 mi South 17.3 mph - N/A   Clear
7:54 PM 24.8 °F 11.1 °F 14.0 °F 64% 29.67 in 10.0 mi South 18.4 mph - N/A   Clear
8:15 PM 24.8 °F 11.1 °F 14.0 °F 64% 29.67 in 10.0 mi South 18.4 mph - N/A   Clear
8:35 PM 24.8 °F 11.5 °F 14.0 °F 64% 29.67 in 10.0 mi South 17.3 mph - N/A   Scattered Clouds
8:55 PM 24.8 °F 11.9 °F 14.0 °F 64% 29.66 in 10.0 mi South 16.1 mph - N/A   Clear
9:15 PM 23.0 °F 11.1 °F 14.0 °F 68% 29.66 in 10.0 mi South 12.7 mph - N/A   Clear
9:35 PM 23.0 °F 10.1 °F 12.2 °F 63% 29.65 in 10.0 mi South 15.0 mph - N/A   Clear
9:55 PM 21.2 °F 9.5 °F 12.2 °F 68% 29.64 in 10.0 mi South 11.5 mph - N/A   Clear
10:15 PM 21.2 °F 10.1 °F 12.2 °F 68% 29.64 in 10.0 mi South 10.4 mph - N/A   Clear
10:35 PM 21.2 °F 9.5 °F 12.2 °F 68% 29.63 in 10.0 mi South 11.5 mph 16.1 mph N/A   Clear
10:55 PM 21.2 °F 9.5 °F 12.2 °F 68% 29.62 in 10.0 mi South 11.5 mph - N/A   Clear
11:15 PM 21.2 °F 9.5 °F 12.2 °F 68% 29.61 in 10.0 mi South 11.5 mph - N/A   Clear
11:35 PM 21.2 °F 9.5 °F 12.2 °F 68% 29.60 in 10.0 mi South 11.5 mph - N/A   Clear
11:55 PM 21.2 °F 9.5 °F 12.2 °F 68% 29.59 in 10.0 mi South 11.5 mph - N/A   Clear